Time;durP1;ratioP1;P1;durP2;ratioP2;P2;SDS_P1;SDS_P2;PMS_P1;PMS_P2;Temp;Humidity;BMP_temperature;BMP_pressure;BME280_temperature;BME280_humidity;BME280_pressure;Samples;Min_cycle;Max_cycle;Signal;HPM_P1;HPM_P2
2022/11/12 14:54:51;;;;;;;21.97;15.30;;;;;;;12.46;100.00;100536.40;1784616;80;20957;-73
2022/11/12 14:57:37;;;;;;;23.12;15.18;;;;;;;12.50;100.00;100539.72;1771693;80;21240;-74
2022/11/12 15:00:39;;;;;;;23.25;16.48;;;;;;;12.41;100.00;100541.97;1759527;80;20920;-72
2022/11/12 15:03:29;;;;;;;24.10;16.40;;;;;;;12.41;100.00;100535.77;1777573;80;20959;-74
2022/11/12 15:06:22;;;;;;;24.47;16.75;;;;;;;12.57;100.00;100536.34;1784775;80;20916;-74
2022/11/12 15:09:07;;;;;;;26.75;15.53;;;;;;;12.62;100.00;100536.97;1784406;80;20975;-73
2022/11/12 15:11:54;;;;;;;21.73;15.80;;;;;;;12.58;100.00;100528.54;1760909;80;21149;-74
2022/11/12 15:14:40;;;;;;;21.90;15.08;;;;;;;12.52;100.00;100529.53;1784179;80;21430;-71
2022/11/12 15:17:30;;;;;;;26.93;18.42;;;;;;;12.44;100.00;100525.36;1757779;80;20913;-71
2022/11/12 15:20:18;;;;;;;27.35;17.85;;;;;;;12.55;100.00;100520.95;1783328;80;20925;-74
2022/11/12 15:23:03;;;;;;;30.45;20.43;;;;;;;12.52;100.00;100518.75;1781160;80;21019;-73
2022/11/12 15:25:59;;;;;;;31.07;20.80;;;;;;;12.36;100.00;100520.88;1771250;80;21474;-72
2022/11/12 15:29:02;;;;;;;33.50;20.08;;;;;;;12.34;100.00;100519.77;1781932;80;20880;-74
2022/11/12 15:32:02;;;;;;;27.42;19.12;;;;;;;12.39;100.00;100515.81;1780164;80;21373;-76
2022/11/12 15:34:49;;;;;;;33.23;23.02;;;;;;;12.33;100.00;100517.33;1763851;80;20925;-74
2022/11/12 15:37:40;;;;;;;27.32;16.65;;;;;;;12.25;100.00;100514.50;1776039;80;20829;-74
2022/11/12 15:40:27;;;;;;;24.65;17.62;;;;;;;12.28;100.00;100512.67;1780074;80;20919;-74
2022/11/12 15:43:26;;;;;;;24.63;18.32;;;;;;;12.46;100.00;100514.86;1761267;80;21018;-73
2022/11/12 15:46:14;;;;;;;27.52;20.72;;;;;;;12.37;100.00;100512.58;1751192;80;21183;-74
2022/11/12 15:48:59;;;;;;;23.47;18.67;;;;;;;12.39;100.00;100507.73;1733015;81;20945;-74
2022/11/12 15:51:45;;;;;;;28.20;19.92;;;;;;;12.35;100.00;100504.45;1736072;81;21546;-73
2022/11/12 15:54:31;;;;;;;25.70;18.57;;;;;;;12.41;100.00;100502.93;1733516;81;21006;-73
2022/11/12 15:57:24;;;;;;;25.50;18.77;;;;;;;12.41;100.00;100511.01;1742925;81;20854;-71
2022/11/12 16:00:20;;;;;;;33.02;20.30;;;;;;;12.47;100.00;100511.94;1727339;81;21393;-74
2022/11/12 16:03:16;;;;;;;31.82;19.30;;;;;;;12.48;100.00;100508.17;1730673;81;20949;-73
2022/11/12 16:06:01;;;;;;;28.45;18.90;;;;;;;12.34;100.00;100506.30;1751705;81;20948;-73
2022/11/12 16:08:47;;;;;;;26.85;17.70;;;;;;;12.24;100.00;100507.47;1753414;81;21169;-73
2022/11/12 16:11:35;;;;;;;30.02;18.57;;;;;;;12.17;100.00;100500.88;1731284;81;20973;-72
2022/11/12 16:14:22;;;;;;;;;;;;;;;12.27;100.00;100503.48;1742725;81;20929;-76
2022/11/12 16:17:16;;;;;;;25.08;18.95;;;;;;;12.25;100.00;100504.24;1746835;81;20088;-73
2022/11/12 16:20:17;;;;;;;24.70;16.75;;;;;;;12.20;100.00;100505.00;1741832;81;21190;-75
2022/11/12 16:23:07;;;;;;;27.07;18.17;;;;;;;12.34;100.00;100514.38;1732199;81;20938;-74
2022/11/12 16:25:53;;;;;;;29.05;17.37;;;;;;;12.59;100.00;100522.11;1744396;81;21436;-75
2022/11/12 16:28:38;;;;;;;27.87;17.67;;;;;;;12.44;100.00;100523.17;1727340;81;20977;-72
2022/11/12 16:31:24;;;;;;;24.67;17.37;;;;;;;12.43;100.00;100513.47;1735278;81;21008;-76
2022/11/12 16:34:10;;;;;;;29.55;17.80;;;;;;;12.54;100.00;100524.72;1748292;81;20880;-74
2022/11/12 16:36:56;;;;;;;30.97;18.00;;;;;;;12.59;100.00;100522.62;1757678;80;21436;-74
2022/11/12 16:39:42;;;;;;;27.13;17.48;;;;;;;12.33;100.00;100522.72;1777079;80;21033;-76
2022/11/12 16:42:27;;;;;;;28.23;18.20;;;;;;;12.42;100.00;100522.09;1778671;80;20920;-74
2022/11/12 16:45:18;;;;;;;27.87;16.50;;;;;;;12.49;100.00;100529.17;1779533;79;21004;-74
2022/11/12 16:48:19;;;;;;;28.50;18.75;;;;;;;12.40;100.00;100526.89;1780487;79;20937;-76
2022/11/12 16:51:05;;;;;;;25.32;16.87;;;;;;;12.49;100.00;100524.60;1784344;79;21242;-75
2022/11/12 16:53:51;;;;;;;52.10;30.97;;;;;;;12.49;100.00;100529.98;1781958;79;20885;-75
2022/11/12 16:56:36;;;;;;;30.40;20.12;;;;;;;12.36;100.00;100524.92;1787494;79;20909;-74
2022/11/12 16:59:21;;;;;;;24.43;17.32;;;;;;;12.34;100.00;100532.41;1780825;79;21008;-75
2022/11/12 17:02:13;;;;;;;31.93;19.60;;;;;;;12.40;100.00;100530.11;1786155;79;20906;-75
2022/11/12 17:05:06;;;;;;;30.50;19.60;;;;;;;12.45;100.00;100530.20;1780418;79;21085;-75
2022/11/12 17:07:57;;;;;;;30.45;20.15;;;;;;;12.38;100.00;100524.16;1783788;79;21464;-74
2022/11/12 17:10:42;;;;;;;27.17;18.60;;;;;;;12.29;100.00;100521.55;1786618;79;20968;-75
2022/11/12 17:13:28;;;;;;;31.27;19.67;;;;;;;12.37;100.00;100523.84;1784810;79;21031;-75
2022/11/12 17:16:14;;;;;;;29.92;19.52;;;;;;;12.32;100.00;100527.29;1785930;79;20960;-74
2022/11/12 17:19:04;;;;;;;36.42;20.15;;;;;;;12.38;100.00;100520.92;1786438;79;21096;-73
2022/11/12 17:21:47;;;;;;;30.20;19.90;;;;;;;12.70;100.00;100524.44;1770706;79;21471;-74
2022/11/12 17:24:33;;;;;;;30.32;20.08;;;;;;;12.58;100.00;100518.30;1771997;79;20981;-73
2022/11/12 17:27:18;;;;;;;30.48;20.08;;;;;;;12.42;100.00;100510.47;1777168;80;20964;-75
2022/11/12 17:30:07;;;;;;;34.33;21.10;;;;;;;12.39;100.00;100510.43;1787426;79;21013;-72
2022/11/12 17:32:52;;;;;;;36.55;20.62;;;;;;;12.37;100.00;100503.66;1783578;78;21136;-72
2022/11/12 17:35:38;;;;;;;31.37;20.15;;;;;;;12.53;100.00;100516.34;1769746;80;20881;-74
2022/11/12 17:38:24;;;;;;;37.67;21.82;;;;;;;12.41;100.00;100519.63;1742985;81;21144;-74
2022/11/12 17:41:10;;;;;;;33.10;19.30;;;;;;;12.52;100.00;100525.48;1745763;81;21470;-73
2022/11/12 17:43:59;;;;;;;28.60;19.20;;;;;;;12.52;100.00;100524.14;1744454;81;20904;-72
2022/11/12 17:46:46;;;;;;;27.37;17.52;;;;;;;12.53;100.00;100520.91;1690075;84;20935;-71
2022/11/12 17:49:32;;;;;;;23.83;16.32;;;;;;;12.71;100.00;100529.28;1722614;81;20977;-73
2022/11/12 17:52:17;;;;;;;19.65;14.15;;;;;;;12.84;100.00;100539.22;1756422;81;20900;-74
2022/11/12 17:55:04;;;;;;;23.12;14.05;;;;;;;12.47;100.00;100525.40;1755899;81;20977;-74
2022/11/12 17:57:51;;;;;;;22.87;14.53;;;;;;;12.40;100.00;100534.16;1757049;81;20953;-73
2022/11/12 18:00:37;;;;;;;21.90;13.45;;;;;;;12.37;100.00;100527.38;1756414;81;21140;-73
2022/11/12 18:03:22;;;;;;;15.38;11.85;;;;;;;12.45;100.00;100535.59;1757130;81;21145;-73
2022/11/12 18:06:22;;;;;;;15.40;11.20;;;;;;;12.46;100.00;100531.83;1757459;81;20882;-73
2022/11/12 18:09:13;;;;;;;13.05;9.83;;;;;;;12.38;100.00;100536.27;1757553;81;21488;-74
2022/11/12 18:11:58;;;;;;;16.07;9.78;;;;;;;12.47;100.00;100512.44;1757964;81;20846;-73
2022/11/12 18:14:44;;;;;;;13.15;10.15;;;;;;;12.37;100.00;100531.42;1755826;81;21254;-73
2022/11/12 18:17:35;;;;;;;17.55;9.65;;;;;;;12.39;100.00;100535.20;1757701;81;21036;-73
2022/11/12 18:20:20;;;;;;;12.68;9.85;;;;;;;12.31;100.00;100535.59;1755664;81;20997;-73
2022/11/12 18:23:06;;;;;;;11.83;8.65;;;;;;;12.35;100.00;100532.72;1756164;81;20930;-73
2022/11/12 18:25:51;;;;;;;12.30;8.80;;;;;;;12.28;100.00;100536.09;1756434;81;20850;-74
2022/11/12 18:28:36;;;;;;;12.35;9.10;;;;;;;12.31;100.00;100541.79;1756869;81;21451;-73
2022/11/12 18:31:22;;;;;;;12.37;9.40;;;;;;;12.38;100.00;100532.23;1758618;81;22256;-75
2022/11/12 18:34:11;;;;;;;14.87;9.75;;;;;;;12.40;100.00;100536.84;1754199;81;20941;-73
2022/11/12 18:36:56;;;;;;;13.78;9.33;;;;;;;12.34;100.00;100541.30;1707213;83;21462;-73
2022/11/12 18:39:42;;;;;;;12.28;9.13;;;;;;;12.12;100.00;100541.16;1731262;83;21005;-74
2022/11/12 18:42:28;;;;;;;15.25;10.20;;;;;;;11.93;100.00;100544.57;1730942;82;21235;-74
2022/11/12 18:45:14;;;;;;;12.63;8.60;;;;;;;11.56;100.00;100543.51;1770074;79;21009;-73
2022/11/12 18:47:59;;;;;;;9.78;8.28;;;;;;;11.66;100.00;100540.22;1713491;82;20928;-72
2022/11/12 18:50:44;;;;;;;10.48;8.18;;;;;;;11.74;100.00;100537.16;1771711;80;20973;-73
2022/11/12 18:53:30;;;;;;;13.40;8.08;;;;;;;11.67;100.00;100535.66;1714576;83;20885;-73
2022/11/12 18:56:18;;;;;;;8.35;7.20;;;;;;;11.64;100.00;100537.48;1771848;80;21237;-72
2022/11/12 18:59:04;;;;;;;10.03;7.03;;;;;;;11.68;100.00;100539.97;1774229;80;25031;-72
2022/11/12 19:02:02;;;;;;;11.45;7.90;;;;;;;11.73;100.00;100533.34;1739758;82;20877;-72
2022/11/12 19:04:48;;;;;;;8.55;7.05;;;;;;;11.78;100.00;100524.87;1722868;83;20931;-71
2022/11/12 19:07:34;;;;;;;9.68;7.62;;;;;;;11.82;100.00;100533.81;1723629;83;20915;-72
2022/11/12 19:10:19;;;;;;;9.05;7.15;;;;;;;11.87;100.00;100540.66;1723370;82;21143;-72
2022/11/12 19:13:05;;;;;;;12.10;7.53;;;;;;;11.83;100.00;100542.16;1707356;83;21083;-73
2022/11/12 19:15:52;;;;;;;10.35;7.65;;;;;;;11.83;100.00;100531.39;1714785;83;20861;-72
2022/11/12 19:18:39;;;;;;;9.58;6.85;;;;;;;11.76;100.00;100530.20;1694931;82;20940;-73
2022/11/12 19:21:25;;;;;;;10.38;7.03;;;;;;;11.69;100.00;100534.36;1724064;81;21110;-72
2022/11/12 19:24:10;;;;;;;7.35;5.97;;;;;;;11.85;100.00;100530.09;1719692;80;21248;-73
2022/11/12 19:26:57;;;;;;;9.85;7.15;;;;;;;11.56;100.00;100525.19;1716472;82;21019;-72
2022/11/12 19:29:43;;;;;;;7.08;6.28;;;;;;;11.59;100.00;100532.81;1697320;82;20995;-69
2022/11/12 19:32:28;;;;;;;8.10;6.62;;;;;;;11.57;100.00;100518.78;1723801;81;21550;-71
2022/11/12 19:35:16;;;;;;;7.90;6.30;;;;;;;11.47;100.00;100530.12;1698932;83;21561;-72
2022/11/12 19:38:02;;;;;;;8.23;6.78;;;;;;;11.35;100.00;100525.29;1726645;81;21147;-72
2022/11/12 19:40:47;;;;;;;7.25;5.85;;;;;;;11.39;100.00;100537.19;1707372;83;20992;-70
2022/11/12 19:43:32;;;;;;;9.10;6.47;;;;;;;11.33;100.00;100530.89;1716055;83;20992;-71
2022/11/12 19:46:17;;;;;;;6.95;5.92;;;;;;;11.40;100.00;100535.34;1711414;83;21028;-72
2022/11/12 19:49:03;;;;;;;8.45;6.62;;;;;;;11.48;100.00;100533.62;1715046;83;21088;-73
2022/11/12 19:51:48;;;;;;;9.28;5.97;;;;;;;11.46;100.00;100546.48;1714056;82;21149;-72
2022/11/12 19:54:33;;;;;;;8.43;6.15;;;;;;;11.55;100.00;100535.13;1715221;83;20889;-72
2022/11/12 19:57:18;;;;;;;7.92;5.70;;;;;;;11.61;100.00;100534.70;1708697;82;21002;-71
2022/11/12 20:00:06;;;;;;;9.30;5.58;;;;;;;11.55;100.00;100528.95;1722080;81;20927;-71
2022/11/12 20:02:51;;;;;;;6.45;5.60;;;;;;;11.73;100.00;100532.00;1710001;81;20936;-70
2022/11/12 20:05:38;;;;;;;7.42;6.33;;;;;;;11.77;100.00;100531.83;1708262;82;21423;-70
2022/11/12 20:08:23;;;;;;;7.85;5.65;;;;;;;11.83;100.00;100527.36;1708123;82;20933;-72
2022/11/12 20:11:09;;;;;;;7.35;5.55;;;;;;;11.75;100.00;100523.17;1706345;82;20968;-71
2022/11/12 20:13:54;;;;;;;10.43;6.55;;;;;;;11.76;100.00;100520.26;1708325;83;20956;-72
2022/11/12 20:16:40;;;;;;;5.97;5.05;;;;;;;11.89;100.00;100530.48;1708785;83;20901;-71
2022/11/12 20:19:25;;;;;;;6.60;5.53;;;;;;;11.90;100.00;100524.04;1705702;82;21803;-71
2022/11/12 20:22:10;;;;;;;9.80;5.80;;;;;;;11.80;100.00;100528.66;1708320;83;21055;-71
2022/11/12 20:24:55;;;;;;;7.97;6.17;;;;;;;11.75;100.00;100517.80;1707139;83;21044;-71
2022/11/12 20:27:40;;;;;;;6.92;5.67;;;;;;;11.74;100.00;100514.30;1706392;83;21451;-70
2022/11/12 20:30:26;;;;;;;7.08;6.42;;;;;;;11.74;100.00;100521.02;1715003;81;21104;-72
2022/11/12 20:33:12;;;;;;;12.47;6.87;;;;;;;11.77;100.00;100521.06;1722636;81;22008;-72
2022/11/12 20:36:10;;;;;;;10.93;5.70;;;;;;;11.81;100.00;100514.17;1713405;83;21004;-71
2022/11/12 20:38:55;;;;;;;6.47;5.60;;;;;;;11.70;100.00;100519.84;1713125;83;21044;-72
2022/11/12 20:41:40;;;;;;;6.95;6.25;;;;;;;11.62;100.00;100521.57;1715305;83;20892;-71
2022/11/12 20:44:25;;;;;;;7.65;5.20;;;;;;;11.57;100.00;100514.74;1709321;83;21541;-71
2022/11/12 20:47:10;;;;;;;7.03;6.12;;;;;;;11.62;100.00;100518.07;1684200;83;21938;-71
2022/11/12 20:49:57;;;;;;;7.10;6.28;;;;;;;11.71;100.00;100519.31;1686573;83;20956;-71
2022/11/12 20:52:42;;;;;;;8.30;6.85;;;;;;;11.71;100.00;100517.97;1678315;83;20893;-71
2022/11/12 20:55:27;;;;;;;7.65;5.83;;;;;;;11.70;100.00;100513.66;1685868;83;20942;-69
2022/11/12 20:58:12;;;;;;;8.05;6.62;;;;;;;11.71;100.00;100499.98;1695180;83;21471;-71
2022/11/12 21:00:57;;;;;;;9.08;6.45;;;;;;;11.77;100.00;100506.28;1689438;82;21789;-71
2022/11/12 21:03:43;;;;;;;6.15;5.55;;;;;;;11.83;100.00;100503.16;1703359;81;20922;-70
2022/11/12 21:06:28;;;;;;;6.72;6.00;;;;;;;11.79;100.00;100491.53;1677817;81;20973;-70
2022/11/12 21:09:13;;;;;;;7.53;6.28;;;;;;;11.81;100.00;100498.03;1677683;82;20995;-69
2022/11/12 21:11:59;;;;;;;7.22;6.35;;;;;;;11.86;100.00;100503.51;1712327;83;21009;-71
2022/11/12 21:14:46;;;;;;;8.78;6.53;;;;;;;11.79;100.00;100506.86;1702803;83;22547;-69
2022/11/12 21:17:31;;;;;;;8.10;6.35;;;;;;;11.79;100.00;100513.58;1689474;82;20945;-69
2022/11/12 21:20:16;;;;;;;11.45;5.95;;;;;;;11.80;100.00;100509.30;1690749;82;20961;-72
2022/11/12 21:23:01;;;;;;;8.78;5.95;;;;;;;11.82;100.00;100511.75;1712309;82;21032;-72
2022/11/12 21:25:46;;;;;;;8.20;6.17;;;;;;;11.80;100.00;100513.33;1712514;83;21005;-71
2022/11/12 21:28:37;;;;;;;8.63;6.25;;;;;;;11.85;100.00;100514.49;1701241;82;21138;-70
2022/11/12 21:31:27;;;;;;;6.35;5.30;;;;;;;11.84;100.00;100516.91;1698838;82;20994;-69
2022/11/12 21:34:13;;;;;;;6.78;5.78;;;;;;;11.79;100.00;100517.09;1705633;82;20893;-70
2022/11/12 21:37:00;;;;;;;6.92;5.62;;;;;;;11.77;100.00;100515.16;1742176;82;21518;-70
2022/11/12 21:39:48;;;;;;;7.53;5.65;;;;;;;11.83;100.00;100528.70;1736429;82;21586;-69
2022/11/12 21:42:32;;;;;;;6.12;5.45;;;;;;;11.77;100.00;100521.87;1740816;82;21258;-70
2022/11/12 21:45:17;;;;;;;7.45;5.70;;;;;;;11.63;100.00;100525.88;1735178;81;21001;-70
2022/11/12 21:48:03;;;;;;;7.30;5.85;;;;;;;11.64;100.00;100528.06;1683477;81;20909;-72
2022/11/12 21:50:48;;;;;;;8.28;5.67;;;;;;;11.60;100.00;100511.58;1680541;82;20979;-70
2022/11/12 21:53:33;;;;;;;6.50;5.65;;;;;;;11.58;100.00;100529.81;1691640;82;20946;-70
2022/11/12 21:56:18;;;;;;;7.72;6.00;;;;;;;11.52;100.00;100521.36;1707343;82;21565;-70
2022/11/12 21:59:04;;;;;;;7.70;6.55;;;;;;;11.49;100.00;100520.47;1695741;82;21027;-70
2022/11/12 22:01:50;;;;;;;6.65;5.90;;;;;;;11.42;100.00;100519.80;1688119;82;21460;-69
2022/11/12 22:04:36;;;;;;;9.33;6.12;;;;;;;11.36;100.00;100530.41;1686975;82;21476;-70
2022/11/12 22:07:21;;;;;;;6.62;5.78;;;;;;;11.47;100.00;100532.00;1695862;83;21072;-70
2022/11/12 22:10:08;;;;;;;8.95;5.72;;;;;;;11.50;100.00;100531.53;1706374;82;21482;-70
2022/11/12 22:12:54;;;;;;;7.72;5.87;;;;;;;11.44;100.00;100523.05;1701070;82;21581;-72
2022/11/12 22:15:39;;;;;;;17.73;6.47;;;;;;;11.55;100.00;100535.67;1681471;82;21003;-70
2022/11/12 22:18:25;;;;;;;7.78;6.78;;;;;;;11.59;100.00;100531.46;1703512;82;21023;-71
2022/11/12 22:21:14;;;;;;;9.20;6.80;;;;;;;11.56;100.00;100531.91;1708992;83;20950;-70
2022/11/12 22:23:59;;;;;;;;;;;;;;;11.50;100.00;100539.06;1703847;82;21247;-72
2022/11/12 22:26:44;;;;;;;9.48;6.25;;;;;;;11.52;100.00;100546.37;1713505;83;20149;-71
2022/11/12 22:29:29;;;;;;;10.18;6.67;;;;;;;11.47;100.00;100543.57;1695705;81;20921;-71
2022/11/12 22:32:25;;;;;;;11.45;7.28;;;;;;;11.48;100.00;100541.16;1658901;84;21438;-71
2022/11/12 22:35:11;;;;;;;8.73;6.53;;;;;;;11.48;100.00;100539.00;1671191;84;20986;-73
2022/11/12 22:37:56;;;;;;;8.63;6.47;;;;;;;11.50;100.00;100543.62;1660959;85;21122;-72
2022/11/12 22:40:42;;;;;;;8.05;6.95;;;;;;;11.49;100.00;100550.88;1660078;85;20900;-71
2022/11/12 22:43:27;;;;;;;9.83;6.87;;;;;;;11.53;100.00;100549.88;1661294;85;21044;-72
2022/11/12 22:46:16;;;;;;;10.35;7.78;;;;;;;11.59;100.00;100559.70;1662672;84;21481;-70
2022/11/12 22:49:02;;;;;;;14.07;9.03;;;;;;;11.46;100.00;100555.89;1662310;84;21073;-70
2022/11/12 22:51:48;;;;;;;12.00;8.38;;;;;;;11.37;100.00;100548.19;1667012;84;21266;-72
2022/11/12 22:54:33;;;;;;;11.70;8.78;;;;;;;11.35;100.00;100547.61;1662464;84;20944;-73
2022/11/12 22:57:18;;;;;;;14.28;8.45;;;;;;;11.23;100.00;100550.02;1662408;83;21529;-71
2022/11/12 23:00:09;;;;;;;10.18;8.20;;;;;;;11.08;100.00;100554.50;1664602;84;21572;-73
2022/11/12 23:02:55;;;;;;;15.13;8.58;;;;;;;11.03;100.00;100564.59;1671395;84;21409;-70
2022/11/12 23:05:41;;;;;;;10.50;7.05;;;;;;;11.07;100.00;100555.53;1674015;85;21491;-69
2022/11/12 23:08:26;;;;;;;8.98;7.60;;;;;;;11.04;100.00;100551.45;1673802;85;20951;-70
2022/11/12 23:11:14;;;;;;;8.78;6.78;;;;;;;11.08;100.00;100559.88;1671606;84;20955;-71
2022/11/12 23:13:59;;;;;;;9.70;7.93;;;;;;;11.14;100.00;100561.62;1664243;84;21029;-70
2022/11/12 23:16:45;;;;;;;8.15;6.80;;;;;;;11.24;100.00;100567.23;1663056;84;20931;-70
2022/11/12 23:19:29;;;;;;;11.55;6.50;;;;;;;11.11;100.00;100561.56;1674060;85;21165;-70
2022/11/12 23:22:15;;;;;;;9.95;6.67;;;;;;;11.05;100.00;100555.78;1661554;84;20871;-70
2022/11/12 23:25:00;;;;;;;10.82;7.90;;;;;;;11.01;100.00;100559.98;1644759;84;21013;-72
2022/11/12 23:27:45;;;;;;;8.15;6.70;;;;;;;10.93;100.00;100558.45;1667127;84;20907;-71
2022/11/12 23:30:33;;;;;;;11.10;7.72;;;;;;;10.94;100.00;100564.11;1673820;84;20939;-71
2022/11/12 23:33:19;;;;;;;12.25;8.40;;;;;;;10.85;100.00;100558.80;1672277;85;21971;-71
2022/11/12 23:36:09;;;;;;;12.95;7.70;;;;;;;10.83;100.00;100560.08;1655374;86;20960;-71
2022/11/12 23:38:56;;;;;;;10.03;6.83;;;;;;;10.94;100.00;100561.42;1631869;85;20965;-71
2022/11/12 23:41:41;;;;;;;11.25;7.25;;;;;;;10.92;100.00;100565.39;1632042;87;20872;-70
2022/11/12 23:44:26;;;;;;;11.83;7.70;;;;;;;11.00;100.00;100558.35;1650224;86;21014;-70
2022/11/12 23:47:12;;;;;;;11.75;7.83;;;;;;;11.01;100.00;100551.11;1648422;86;21177;-70
2022/11/12 23:49:56;;;;;;;11.65;7.62;;;;;;;10.86;100.00;100553.70;1654622;86;21507;-70
2022/11/12 23:52:42;;;;;;;12.43;8.23;;;;;;;10.97;100.00;100559.33;1654573;86;21025;-71
2022/11/12 23:55:27;;;;;;;13.18;8.75;;;;;;;11.17;100.00;100558.48;1627967;86;20918;-70
2022/11/12 23:58:13;;;;;;;11.38;8.25;;;;;;;11.13;100.00;100555.96;1654660;86;20977;-71
